Time;durP1;ratioP1;P1;durP2;ratioP2;P2;SDS_P1;SDS_P2;PMS_P1;PMS_P2;Temp;Humidity;BMP_temperature;BMP_pressure;BME280_temperature;BME280_humidity;BME280_pressure;Samples;Min_cycle;Max_cycle;Signal;HPM_P1;HPM_P2
2021/10/03 00:04:08;;;;;;;0.10;0.10;;;;;;;;;;10433254;28;20045;-61
2021/10/03 00:09:10;;;;;;;0.00;0.00;;;;;;;;;;10433924;28;20165;-60
2021/10/03 00:14:15;;;;;;;0.20;0.00;;;;;;;;;;10434152;28;20045;-61
2021/10/03 00:19:18;;;;;;;0.00;0.00;;;;;;;;;;10433447;28;20076;-60
2021/10/03 00:24:21;;;;;;;0.00;0.00;;;;;;;;;;10434971;28;20044;-61
2021/10/03 00:29:25;;;;;;;0.00;0.00;;;;;;;;;;10433891;28;21000;-61
2021/10/03 00:34:28;;;;;;;0.00;0.00;;;;;;;;;;10433453;28;20128;-60
2021/10/03 00:39:31;;;;;;;0.00;0.00;;;;;;;;;;10432309;28;20067;-61
2021/10/03 00:44:35;;;;;;;0.00;0.00;;;;;;;;;;10432706;28;20044;-61
2021/10/03 00:49:37;;;;;;;0.00;0.00;;;;;;;;;;10432332;28;20045;-60
2021/10/03 00:54:40;;;;;;;0.00;0.00;;;;;;;;;;10430756;28;20487;-61
2021/10/03 00:59:44;;;;;;;0.20;0.00;;;;;;;;;;10431132;28;20061;-61
2021/10/03 01:04:48;;;;;;;0.00;0.00;;;;;;;;;;10430592;28;20037;-61
2021/10/03 01:09:51;;;;;;;0.00;0.00;;;;;;;;;;10430244;28;20057;-61
2021/10/03 01:14:55;;;;;;;0.30;0.00;;;;;;;;;;10430385;28;20823;-60
2021/10/03 01:19:58;;;;;;;0.00;0.00;;;;;;;;;;10430479;28;20539;-60
2021/10/03 01:25:02;;;;;;;0.00;0.00;;;;;;;;;;10431525;28;20051;-60
2021/10/03 01:30:06;;;;;;;0.00;0.00;;;;;;;;;;10429931;28;20041;-60
2021/10/03 01:35:09;;;;;;;0.00;0.00;;;;;;;;;;10428636;28;20064;-61
2021/10/03 01:40:13;;;;;;;0.00;0.00;;;;;;;;;;10429486;28;20487;-61
2021/10/03 01:45:17;;;;;;;0.00;0.00;;;;;;;;;;10430152;28;20037;-61
2021/10/03 01:50:20;;;;;;;0.00;0.00;;;;;;;;;;10429099;28;20493;-60
2021/10/03 01:55:24;;;;;;;0.00;0.00;;;;;;;;;;10430809;28;20033;-60
2021/10/03 02:00:27;;;;;;;0.10;0.10;;;;;;;;;;10427520;28;20877;-60
2021/10/03 02:05:34;;;;;;;0.00;0.00;;;;;;;;;;10422879;28;20087;-61
2021/10/03 02:10:39;;;;;;;0.00;0.00;;;;;;;;;;10429121;28;20049;-60
2021/10/03 02:15:43;;;;;;;0.32;0.00;;;;;;;;;;10429739;28;20041;-60
2021/10/03 02:20:47;;;;;;;0.10;0.10;;;;;;;;;;10429097;28;20944;-60
2021/10/03 02:25:51;;;;;;;0.00;0.00;;;;;;;;;;10429193;28;20044;-60
2021/10/03 02:30:55;;;;;;;0.00;0.00;;;;;;;;;;10430558;28;20151;-60
2021/10/03 02:35:58;;;;;;;0.03;0.03;;;;;;;;;;10427748;28;20041;-60
2021/10/03 02:41:03;;;;;;;0.00;0.00;;;;;;;;;;10429084;28;20136;-61
2021/10/03 02:46:06;;;;;;;0.00;0.00;;;;;;;;;;10432404;28;20053;-61
2021/10/03 02:51:09;;;;;;;0.00;0.00;;;;;;;;;;10436585;28;20071;-60
2021/10/03 02:56:13;;;;;;;0.00;0.00;;;;;;;;;;10437758;28;20052;-61
2021/10/03 03:01:16;;;;;;;0.00;0.00;;;;;;;;;;10433600;28;20045;-60
2021/10/03 03:06:19;;;;;;;0.10;0.10;;;;;;;;;;10436031;28;20056;-61
2021/10/03 03:11:25;;;;;;;0.00;0.00;;;;;;;;;;10436251;28;20135;-60
2021/10/03 03:16:27;;;;;;;0.00;0.00;;;;;;;;;;10429238;28;20103;-60
2021/10/03 03:21:30;;;;;;;0.00;0.00;;;;;;;;;;10436330;28;20073;-60
2021/10/03 03:26:34;;;;;;;0.00;0.00;;;;;;;;;;10431671;28;20047;-61
2021/10/03 03:31:37;;;;;;;0.00;0.00;;;;;;;;;;10436094;28;20044;-60
2021/10/03 03:36:40;;;;;;;0.00;0.00;;;;;;;;;;10434577;28;20808;-60
2021/10/03 03:41:44;;;;;;;0.00;0.00;;;;;;;;;;10435691;28;20068;-60
2021/10/03 03:46:47;;;;;;;0.00;0.00;;;;;;;;;;10434706;28;20045;-60
2021/10/03 03:51:50;;;;;;;0.10;0.00;;;;;;;;;;10434845;28;20055;-61
2021/10/03 03:56:54;;;;;;;0.00;0.00;;;;;;;;;;10434628;28;20544;-60
2021/10/03 04:01:57;;;;;;;0.00;0.00;;;;;;;;;;10435501;28;20402;-60
2021/10/03 04:07:00;;;;;;;0.00;0.00;;;;;;;;;;10431873;28;20084;-60
2021/10/03 04:12:05;;;;;;;0.00;0.00;;;;;;;;;;10437904;28;20059;-60
2021/10/03 04:17:07;;;;;;;0.10;0.00;;;;;;;;;;10431715;28;20047;-60
2021/10/03 04:22:10;;;;;;;0.00;0.00;;;;;;;;;;10434071;28;20056;-61
2021/10/03 04:27:14;;;;;;;0.00;0.00;;;;;;;;;;10436546;28;20048;-61
2021/10/03 04:32:17;;;;;;;0.00;0.00;;;;;;;;;;10434154;28;20053;-61
2021/10/03 04:37:20;;;;;;;0.00;0.00;;;;;;;;;;10433754;28;20037;-60
2021/10/03 04:42:24;;;;;;;0.00;0.00;;;;;;;;;;10434498;28;20240;-60
2021/10/03 04:47:27;;;;;;;0.00;0.00;;;;;;;;;;10433969;28;20395;-60
2021/10/03 04:52:30;;;;;;;0.00;0.00;;;;;;;;;;10431633;28;20127;-60
2021/10/03 04:57:58;;;;;;;0.00;0.00;;;;;;;;;;10434307;28;20072;-60
2021/10/03 05:03:02;;;;;;;0.00;0.00;;;;;;;;;;10429900;28;20103;-60
2021/10/03 05:08:05;;;;;;;0.10;0.05;;;;;;;;;;10433749;28;20131;-60
2021/10/03 05:13:08;;;;;;;0.20;0.03;;;;;;;;;;10433590;28;20602;-60
2021/10/03 05:18:12;;;;;;;0.00;0.00;;;;;;;;;;10431237;28;20479;-60
2021/10/03 05:23:15;;;;;;;0.00;0.00;;;;;;;;;;10433392;28;21013;-60
2021/10/03 05:28:18;;;;;;;0.00;0.00;;;;;;;;;;10431847;28;20055;-60
2021/10/03 05:33:23;;;;;;;0.00;0.00;;;;;;;;;;10434172;28;20398;-60
2021/10/03 05:38:26;;;;;;;0.03;0.00;;;;;;;;;;10430740;28;20039;-60
2021/10/03 05:43:29;;;;;;;0.10;0.10;;;;;;;;;;10434420;28;20123;-58
2021/10/03 05:48:33;;;;;;;0.00;0.00;;;;;;;;;;10430226;28;20049;-58
2021/10/03 05:53:36;;;;;;;0.80;0.10;;;;;;;;;;10431849;28;20044;-59
2021/10/03 05:58:38;;;;;;;0.20;0.10;;;;;;;;;;10429730;28;20033;-59
2021/10/03 06:03:43;;;;;;;0.00;0.00;;;;;;;;;;10430689;28;20051;-60
2021/10/03 06:08:46;;;;;;;0.00;0.00;;;;;;;;;;10429651;28;20155;-61
2021/10/03 06:13:49;;;;;;;0.00;0.00;;;;;;;;;;10432310;28;20105;-60
2021/10/03 06:18:53;;;;;;;0.00;0.00;;;;;;;;;;10430864;28;20040;-60
2021/10/03 06:23:56;;;;;;;0.00;0.00;;;;;;;;;;10429473;28;20160;-59
2021/10/03 06:29:03;;;;;;;0.00;0.00;;;;;;;;;;10430769;28;20950;-59
2021/10/03 06:34:07;;;;;;;0.00;0.00;;;;;;;;;;10439668;28;20059;-60
2021/10/03 06:39:15;;;;;;;0.00;0.00;;;;;;;;;;10434124;28;20045;-59
2021/10/03 06:44:20;;;;;;;0.00;0.00;;;;;;;;;;10431367;28;20056;-59
2021/10/03 06:49:24;;;;;;;0.00;0.00;;;;;;;;;;10428475;28;20041;-59
2021/10/03 06:54:27;;;;;;;0.10;0.05;;;;;;;;;;10431502;28;20053;-59
2021/10/03 06:59:31;;;;;;;0.00;0.00;;;;;;;;;;10430208;28;20099;-59
2021/10/03 07:04:35;;;;;;;0.10;0.10;;;;;;;;;;10434428;28;20778;-59
2021/10/03 07:09:38;;;;;;;0.32;0.03;;;;;;;;;;10432652;28;20045;-60
2021/10/03 07:14:42;;;;;;;0.00;0.00;;;;;;;;;;10434205;28;20103;-60
2021/10/03 07:19:46;;;;;;;0.00;0.00;;;;;;;;;;10431742;28;20467;-59
2021/10/03 07:24:49;;;;;;;0.00;0.00;;;;;;;;;;10439592;28;20047;-60
2021/10/03 07:29:52;;;;;;;0.00;0.00;;;;;;;;;;10430481;28;20037;-60
2021/10/03 07:34:56;;;;;;;0.00;0.00;;;;;;;;;;10445213;28;20444;-62
2021/10/03 07:39:59;;;;;;;0.00;0.00;;;;;;;;;;10438633;28;20063;-61
2021/10/03 07:45:02;;;;;;;0.00;0.00;;;;;;;;;;10440125;28;20080;-60
2021/10/03 07:50:07;;;;;;;0.00;0.00;;;;;;;;;;10437762;28;20118;-62
2021/10/03 07:55:11;;;;;;;0.00;0.00;;;;;;;;;;10437347;28;20043;-61
2021/10/03 08:00:14;;;;;;;0.00;0.00;;;;;;;;;;10436017;28;20045;-63
2021/10/03 08:05:18;;;;;;;0.05;0.05;;;;;;;;;;10436395;28;20390;-63
2021/10/03 08:10:21;;;;;;;0.00;0.00;;;;;;;;;;10436524;28;20061;-62
2021/10/03 08:15:25;;;;;;;0.10;0.10;;;;;;;;;;10436883;28;20060;-63
2021/10/03 08:20:30;;;;;;;0.00;0.00;;;;;;;;;;10437004;28;20041;-61
2021/10/03 08:25:32;;;;;;;0.10;0.00;;;;;;;;;;10435461;28;20508;-61
2021/10/03 08:30:35;;;;;;;0.00;0.00;;;;;;;;;;10434317;28;20044;-62
2021/10/03 08:35:40;;;;;;;0.00;0.00;;;;;;;;;;10434093;28;20049;-59
2021/10/03 08:40:43;;;;;;;0.00;0.00;;;;;;;;;;10432680;28;20755;-59
2021/10/03 08:45:45;;;;;;;0.00;0.00;;;;;;;;;;10435066;28;20057;-59
2021/10/03 08:50:50;;;;;;;0.00;0.00;;;;;;;;;;10435747;28;20044;-61
2021/10/03 08:55:56;;;;;;;0.00;0.00;;;;;;;;;;10434348;28;20048;-61
2021/10/03 09:00:59;;;;;;;0.00;0.00;;;;;;;;;;10435457;28;20036;-61
2021/10/03 09:06:03;;;;;;;0.08;0.00;;;;;;;;;;10433119;28;20060;-61
2021/10/03 09:11:07;;;;;;;0.00;0.00;;;;;;;;;;10441553;28;20127;-60
2021/10/03 09:16:11;;;;;;;0.00;0.00;;;;;;;;;;10443079;28;20510;-61
2021/10/03 09:21:33;;;;;;;0.00;0.00;;;;;;;;;;10439299;28;20051;-61
2021/10/03 09:26:36;;;;;;;0.00;0.00;;;;;;;;;;10437248;28;20057;-66
2021/10/03 09:31:39;;;;;;;0.00;0.00;;;;;;;;;;10434738;28;20045;-60
2021/10/03 09:36:44;;;;;;;0.00;0.00;;;;;;;;;;10432460;28;20505;-59
2021/10/03 09:41:47;;;;;;;0.00;0.00;;;;;;;;;;10434915;28;20094;-60
2021/10/03 09:46:50;;;;;;;0.00;0.00;;;;;;;;;;10436372;28;20051;-59
2021/10/03 09:51:55;;;;;;;0.00;0.00;;;;;;;;;;10433307;28;20048;-60
2021/10/03 09:56:57;;;;;;;0.00;0.00;;;;;;;;;;10435993;28;20045;-60
2021/10/03 10:02:00;;;;;;;0.00;0.00;;;;;;;;;;10434643;28;20033;-64
2021/10/03 10:07:05;;;;;;;0.00;0.00;;;;;;;;;;10430496;28;20056;-61
2021/10/03 10:12:11;;;;;;;0.00;0.00;;;;;;;;;;10434673;28;20045;-61
2021/10/03 10:17:26;;;;;;;0.00;0.00;;;;;;;;;;10433070;28;20052;-61
2021/10/03 10:22:35;;;;;;;0.00;0.00;;;;;;;;;;10432569;28;20051;-61
2021/10/03 10:27:58;;;;;;;0.00;0.00;;;;;;;;;;10436315;28;20127;-61
2021/10/03 10:33:14;;;;;;;0.00;0.00;;;;;;;;;;10435488;28;20041;-59
2021/10/03 10:38:19;;;;;;;0.00;0.00;;;;;;;;;;10431837;28;20041;-59
2021/10/03 10:43:43;;;;;;;0.00;0.00;;;;;;;;;;10430901;28;20049;-59
2021/10/03 10:48:47;;;;;;;0.00;0.00;;;;;;;;;;10430074;28;20040;-60
2021/10/03 10:54:11;;;;;;;0.00;0.00;;;;;;;;;;10430546;28;20043;-62
2021/10/03 10:59:13;;;;;;;0.00;0.00;;;;;;;;;;10430609;28;20041;-61
2021/10/03 11:04:24;;;;;;;0.00;0.00;;;;;;;;;;10431111;28;20629;-62
2021/10/03 11:09:29;;;;;;;0.00;0.00;;;;;;;;;;10435047;28;20063;-64
2021/10/03 11:14:32;;;;;;;0.00;0.00;;;;;;;;;;10439004;28;20265;-63
2021/10/03 11:19:36;;;;;;;0.00;0.00;;;;;;;;;;10436210;28;20326;-60
2021/10/03 11:24:42;;;;;;;0.00;0.00;;;;;;;;;;10441521;28;20123;-60
2021/10/03 11:29:46;;;;;;;0.00;0.00;;;;;;;;;;10439715;28;20037;-60
2021/10/03 11:34:49;;;;;;;0.00;0.00;;;;;;;;;;10441854;28;20045;-60
2021/10/03 11:39:54;;;;;;;0.00;0.00;;;;;;;;;;10437249;28;20415;-60
2021/10/03 11:44:58;;;;;;;0.00;0.00;;;;;;;;;;10434874;28;20483;-59
2021/10/03 11:50:01;;;;;;;0.00;0.00;;;;;;;;;;10435842;28;20178;-59
2021/10/03 11:55:08;;;;;;;0.00;0.00;;;;;;;;;;10435521;28;20053;-60
2021/10/03 12:00:12;;;;;;;0.00;0.00;;;;;;;;;;10434014;28;20053;-60
2021/10/03 12:05:17;;;;;;;0.00;0.00;;;;;;;;;;10435580;28;20067;-59
2021/10/03 12:10:21;;;;;;;0.00;0.00;;;;;;;;;;10434872;28;20080;-60
2021/10/03 12:15:43;;;;;;;0.00;0.00;;;;;;;;;;10433231;28;20128;-60
2021/10/03 12:20:47;;;;;;;0.00;0.00;;;;;;;;;;10431010;28;20127;-60
2021/10/03 12:25:51;;;;;;;0.00;0.00;;;;;;;;;;10437873;28;20047;-60
2021/10/03 12:30:54;;;;;;;0.00;0.00;;;;;;;;;;10436243;28;20052;-61
2021/10/03 12:36:00;;;;;;;0.00;0.00;;;;;;;;;;10434779;28;20068;-64
2021/10/03 12:41:04;;;;;;;0.00;0.00;;;;;;;;;;10435717;28;20059;-66
2021/10/03 12:46:08;;;;;;;0.00;0.00;;;;;;;;;;10435936;28;20041;-64
2021/10/03 12:51:12;;;;;;;0.00;0.00;;;;;;;;;;10435567;28;20045;-65
2021/10/03 12:56:17;;;;;;;0.00;0.00;;;;;;;;;;10436754;28;20155;-65
2021/10/03 13:01:27;;;;;;;0.03;0.00;;;;;;;;;;10443549;28;20037;-64
2021/10/03 13:06:31;;;;;;;0.00;0.00;;;;;;;;;;10441242;28;20518;-65
2021/10/03 13:11:35;;;;;;;0.00;0.00;;;;;;;;;;10438756;28;20187;-64
2021/10/03 13:16:38;;;;;;;0.00;0.00;;;;;;;;;;10435905;28;20124;-66
2021/10/03 13:21:41;;;;;;;0.00;0.00;;;;;;;;;;10433462;28;20040;-66
2021/10/03 13:26:45;;;;;;;0.00;0.00;;;;;;;;;;10430129;28;20055;-64
2021/10/03 13:31:50;;;;;;;0.00;0.00;;;;;;;;;;10435460;28;20479;-61
2021/10/03 13:36:54;;;;;;;0.00;0.00;;;;;;;;;;10436225;28;20055;-63
2021/10/03 13:41:59;;;;;;;0.00;0.00;;;;;;;;;;10436604;28;20037;-62
2021/10/03 13:47:02;;;;;;;0.00;0.00;;;;;;;;;;10434612;28;20056;-63
2021/10/03 13:52:06;;;;;;;0.00;0.00;;;;;;;;;;10450786;28;20037;-63
2021/10/03 13:57:10;;;;;;;0.00;0.00;;;;;;;;;;10437175;28;20045;-63
2021/10/03 14:02:19;;;;;;;0.00;0.00;;;;;;;;;;10439695;28;20045;-63
2021/10/03 14:07:22;;;;;;;0.00;0.00;;;;;;;;;;10441192;28;20118;-64
2021/10/03 14:12:26;;;;;;;0.00;0.00;;;;;;;;;;10433768;28;20068;-63
2021/10/03 14:17:32;;;;;;;0.00;0.00;;;;;;;;;;10442834;28;20041;-64
2021/10/03 14:22:36;;;;;;;0.30;0.00;;;;;;;;;;10434352;28;20033;-64
2021/10/03 14:27:40;;;;;;;0.00;0.00;;;;;;;;;;10440829;28;20048;-63
2021/10/03 14:32:44;;;;;;;0.00;0.00;;;;;;;;;;10439897;28;20041;-64
2021/10/03 14:37:50;;;;;;;0.00;0.00;;;;;;;;;;10444087;28;20037;-64
2021/10/03 14:42:56;;;;;;;0.00;0.00;;;;;;;;;;10448609;28;21570;-63
2021/10/03 14:48:01;;;;;;;0.00;0.00;;;;;;;;;;10450442;28;20384;-63
2021/10/03 14:53:07;;;;;;;0.00;0.00;;;;;;;;;;10450902;28;20045;-64
2021/10/03 14:58:11;;;;;;;0.00;0.00;;;;;;;;;;10441856;28;20041;-63
2021/10/03 15:03:14;;;;;;;0.00;0.00;;;;;;;;;;10440112;28;20135;-63
2021/10/03 15:08:16;;;;;;;0.25;0.00;;;;;;;;;;10439750;28;20048;-64
2021/10/03 15:13:22;;;;;;;0.00;0.00;;;;;;;;;;10446919;28;20028;-63
2021/10/03 15:18:25;;;;;;;0.00;0.00;;;;;;;;;;10446584;28;20115;-63
2021/10/03 15:23:28;;;;;;;0.00;0.00;;;;;;;;;;10446383;28;20044;-64
2021/10/03 15:28:32;;;;;;;0.00;0.00;;;;;;;;;;10446977;28;20032;-64
2021/10/03 15:33:35;;;;;;;0.00;0.00;;;;;;;;;;10445068;28;20402;-64
2021/10/03 15:38:38;;;;;;;0.00;0.00;;;;;;;;;;10441886;28;20459;-63
2021/10/03 15:43:42;;;;;;;0.00;0.00;;;;;;;;;;10436847;28;20127;-63
2021/10/03 15:48:47;;;;;;;0.00;0.00;;;;;;;;;;10440380;28;20044;-65
2021/10/03 15:53:51;;;;;;;0.00;0.00;;;;;;;;;;10444350;28;20447;-65
2021/10/03 15:58:57;;;;;;;0.00;0.00;;;;;;;;;;10445866;28;20098;-64
2021/10/03 16:03:59;;;;;;;0.00;0.00;;;;;;;;;;10450782;28;20814;-63
2021/10/03 16:09:02;;;;;;;0.00;0.00;;;;;;;;;;10447813;28;20052;-64
2021/10/03 16:14:06;;;;;;;0.00;0.00;;;;;;;;;;10452816;28;20075;-67
2021/10/03 16:19:13;;;;;;;0.00;0.00;;;;;;;;;;10444084;28;20063;-66
2021/10/03 16:24:15;;;;;;;0.10;0.00;;;;;;;;;;10444970;28;20043;-64
2021/10/03 16:29:20;;;;;;;0.00;0.00;;;;;;;;;;10438606;28;20049;-66
2021/10/03 16:34:22;;;;;;;0.00;0.00;;;;;;;;;;10437396;28;20497;-66
2021/10/03 16:39:28;;;;;;;0.00;0.00;;;;;;;;;;10438899;28;20080;-68
2021/10/03 16:44:34;;;;;;;0.00;0.00;;;;;;;;;;10437272;28;20049;-65
2021/10/03 16:49:37;;;;;;;0.00;0.00;;;;;;;;;;10438057;28;20505;-63
2021/10/03 16:54:40;;;;;;;0.00;0.00;;;;;;;;;;10439639;28;20524;-64
2021/10/03 16:59:47;;;;;;;0.00;0.00;;;;;;;;;;10441906;28;20067;-64
2021/10/03 17:04:50;;;;;;;0.00;0.00;;;;;;;;;;10440360;28;20483;-64
2021/10/03 17:09:53;;;;;;;0.00;0.00;;;;;;;;;;10438868;28;20069;-63
2021/10/03 17:14:58;;;;;;;0.00;0.00;;;;;;;;;;10439524;28;20036;-67
2021/10/03 17:20:01;;;;;;;0.00;0.00;;;;;;;;;;10433983;28;20403;-62
2021/10/03 17:25:05;;;;;;;0.00;0.00;;;;;;;;;;10438263;28;20138;-64
2021/10/03 17:30:12;;;;;;;0.00;0.00;;;;;;;;;;10432238;28;20293;-65
2021/10/03 17:35:18;;;;;;;0.00;0.00;;;;;;;;;;10435206;28;20057;-63
2021/10/03 17:40:21;;;;;;;0.00;0.00;;;;;;;;;;10437377;28;20056;-65
2021/10/03 17:45:25;;;;;;;0.00;0.00;;;;;;;;;;10432901;28;20060;-65
2021/10/03 17:50:28;;;;;;;0.00;0.00;;;;;;;;;;10434764;28;20513;-64
2021/10/03 17:55:32;;;;;;;0.00;0.00;;;;;;;;;;10434769;28;20051;-65
2021/10/03 18:00:36;;;;;;;0.00;0.00;;;;;;;;;;10432493;28;20043;-64
2021/10/03 18:05:39;;;;;;;0.00;0.00;;;;;;;;;;10431315;28;20056;-64
2021/10/03 18:10:43;;;;;;;0.00;0.00;;;;;;;;;;10428932;28;20849;-66
2021/10/03 18:15:48;;;;;;;0.00;0.00;;;;;;;;;;10430635;28;20170;-69
2021/10/03 18:20:51;;;;;;;0.00;0.00;;;;;;;;;;10430577;28;20035;-65
2021/10/03 18:25:54;;;;;;;0.05;0.00;;;;;;;;;;10433046;28;20051;-69
2021/10/03 18:30:59;;;;;;;0.00;0.00;;;;;;;;;;10431111;28;20067;-67
2021/10/03 18:36:02;;;;;;;0.00;0.00;;;;;;;;;;10432494;28;20140;-68
2021/10/03 18:41:05;;;;;;;0.03;0.00;;;;;;;;;;10430583;28;20707;-67
2021/10/03 18:46:09;;;;;;;0.00;0.00;;;;;;;;;;10431668;28;20140;-66
2021/10/03 18:51:12;;;;;;;0.00;0.00;;;;;;;;;;10428481;28;20067;-64
2021/10/03 18:56:17;;;;;;;0.00;0.00;;;;;;;;;;10433385;28;20045;-67
2021/10/03 19:01:23;;;;;;;0.00;0.00;;;;;;;;;;10429327;28;20048;-66
2021/10/03 19:06:28;;;;;;;0.00;0.00;;;;;;;;;;10428393;28;20064;-64
2021/10/03 19:11:32;;;;;;;0.00;0.00;;;;;;;;;;10427625;28;20045;-64
2021/10/03 19:16:36;;;;;;;0.00;0.00;;;;;;;;;;10429235;28;20052;-66
2021/10/03 19:21:40;;;;;;;0.00;0.00;;;;;;;;;;10403876;28;20164;-66
2021/10/03 19:26:43;;;;;;;0.00;0.00;;;;;;;;;;10384124;28;20516;-66
2021/10/03 19:31:47;;;;;;;0.00;0.00;;;;;;;;;;10392286;28;20037;-66
2021/10/03 19:36:50;;;;;;;0.00;0.00;;;;;;;;;;10392245;28;20676;-66
2021/10/03 19:41:53;;;;;;;0.00;0.00;;;;;;;;;;10389560;28;20052;-65
2021/10/03 19:46:58;;;;;;;0.00;0.00;;;;;;;;;;10392843;28;20052;-64
2021/10/03 19:52:02;;;;;;;0.00;0.00;;;;;;;;;;10392240;28;20077;-66
2021/10/03 19:57:04;;;;;;;0.00;0.00;;;;;;;;;;10392606;28;20072;-65
2021/10/03 20:02:09;;;;;;;0.00;0.00;;;;;;;;;;10390207;28;20053;-65
2021/10/03 20:07:12;;;;;;;0.00;0.00;;;;;;;;;;10390424;28;20068;-66
2021/10/03 20:12:15;;;;;;;0.00;0.00;;;;;;;;;;10392407;28;20046;-65
2021/10/03 20:17:19;;;;;;;0.00;0.00;;;;;;;;;;10394134;28;20041;-65
2021/10/03 20:22:22;;;;;;;0.00;0.00;;;;;;;;;;10391133;28;20053;-65
2021/10/03 20:27:26;;;;;;;0.00;0.00;;;;;;;;;;10391312;28;20111;-66
2021/10/03 20:38:18;;;;;;;0.00;0.00;;;;;;;;;;10389907;28;20048;-66
2021/10/03 20:43:21;;;;;;;0.00;0.00;;;;;;;;;;10393044;28;20103;-65
2021/10/03 20:48:24;;;;;;;0.10;0.10;;;;;;;;;;10391050;28;20045;-63
2021/10/03 20:53:29;;;;;;;0.00;0.00;;;;;;;;;;10392279;28;20152;-63
2021/10/03 20:58:32;;;;;;;0.00;0.00;;;;;;;;;;10390867;28;20056;-63
2021/10/03 21:03:36;;;;;;;0.00;0.00;;;;;;;;;;10393043;28;20176;-66
2021/10/03 21:08:40;;;;;;;0.00;0.00;;;;;;;;;;10398491;28;20144;-67
2021/10/03 21:13:49;;;;;;;0.00;0.00;;;;;;;;;;10398890;28;20044;-66
2021/10/03 21:18:52;;;;;;;0.15;0.00;;;;;;;;;;10398198;28;20574;-65
2021/10/03 21:23:57;;;;;;;0.00;0.00;;;;;;;;;;10398009;28;20041;-65
2021/10/03 21:29:00;;;;;;;0.00;0.00;;;;;;;;;;10397734;28;20045;-65
2021/10/03 21:34:08;;;;;;;0.00;0.00;;;;;;;;;;10399626;28;20835;-66
2021/10/03 21:39:13;;;;;;;0.00;0.00;;;;;;;;;;10397193;28;20049;-66
2021/10/03 21:44:21;;;;;;;0.00;0.00;;;;;;;;;;10398609;28;20041;-66
2021/10/03 21:49:24;;;;;;;0.00;0.00;;;;;;;;;;10395065;28;20057;-66
2021/10/03 21:54:28;;;;;;;0.00;0.00;;;;;;;;;;10402732;28;20359;-66
2021/10/03 21:59:30;;;;;;;0.00;0.00;;;;;;;;;;10429230;28;20388;-65
2021/10/03 22:04:33;;;;;;;0.00;0.00;;;;;;;;;;10440558;28;20040;-65
2021/10/03 22:09:40;;;;;;;0.00;0.00;;;;;;;;;;10438886;28;20045;-66
2021/10/03 22:14:44;;;;;;;0.00;0.00;;;;;;;;;;10442613;28;20041;-65
2021/10/03 22:19:47;;;;;;;0.00;0.00;;;;;;;;;;10438063;28;20060;-65
2021/10/03 22:24:51;;;;;;;0.00;0.00;;;;;;;;;;10442692;28;20112;-67
2021/10/03 22:29:54;;;;;;;0.00;0.00;;;;;;;;;;10443273;28;20487;-66
2021/10/03 22:34:57;;;;;;;0.08;0.08;;;;;;;;;;10444371;28;20136;-66
2021/10/03 22:40:01;;;;;;;0.00;0.00;;;;;;;;;;10439794;28;20051;-66
2021/10/03 22:45:05;;;;;;;0.00;0.00;;;;;;;;;;10443796;28;20047;-66
2021/10/03 22:50:09;;;;;;;0.00;0.00;;;;;;;;;;10441027;28;20081;-66
2021/10/03 22:55:13;;;;;;;0.00;0.00;;;;;;;;;;10441783;28;20154;-65
2021/10/03 23:00:16;;;;;;;0.00;0.00;;;;;;;;;;10441206;28;20056;-66
2021/10/03 23:05:19;;;;;;;0.00;0.00;;;;;;;;;;10449273;28;20282;-66
2021/10/03 23:10:25;;;;;;;0.00;0.00;;;;;;;;;;10445362;28;20138;-66
2021/10/03 23:15:28;;;;;;;0.00;0.00;;;;;;;;;;10445518;28;20487;-66
2021/10/03 23:20:35;;;;;;;0.00;0.00;;;;;;;;;;10446767;28;20055;-66
2021/10/03 23:25:39;;;;;;;0.00;0.00;;;;;;;;;;10446855;28;20049;-66
2021/10/03 23:30:48;;;;;;;0.00;0.00;;;;;;;;;;10448070;28;20154;-66
2021/10/03 23:35:51;;;;;;;0.00;0.00;;;;;;;;;;10449650;28;20116;-67
2021/10/03 23:40:55;;;;;;;0.00;0.00;;;;;;;;;;10447450;28;20959;-66
2021/10/03 23:45:58;;;;;;;0.00;0.00;;;;;;;;;;10453335;28;20135;-66
2021/10/03 23:51:35;;;;;;;0.00;0.00;;;;;;;;;;10450343;28;20048;-66
2021/10/03 23:56:39;;;;;;;0.00;0.00;;;;;;;;;;10448882;28;20045;-66
